Time;durP1;ratioP1;P1;durP2;ratioP2;P2;SDS_P1;SDS_P2;PMS_P1;PMS_P2;Temp;Humidity;BMP_temperature;BMP_pressure;BME280_temperature;BME280_humidity;BME280_pressure;Samples;Min_cycle;Max_cycle;Signal;HPM_P1;HPM_P2
2023/02/19 00:02:23;;;;;;;22.27;13.90;;;6.50;99.90;;;;;;5029340;28;20029;-67
2023/02/19 00:04:49;;;;;;;22.03;13.43;;;6.50;99.90;;;;;;5029341;28;20026;-69
2023/02/19 00:07:15;;;;;;;22.07;12.03;;;6.40;99.90;;;;;;5029872;28;20400;-69
2023/02/19 00:09:40;;;;;;;24.23;13.37;;;6.40;99.90;;;;;;5029169;28;20039;-68
2023/02/19 00:12:06;;;;;;;20.07;11.43;;;6.40;99.90;;;;;;5029582;28;20033;-69
2023/02/19 00:14:32;;;;;;;20.58;12.07;;;6.40;99.90;;;;;;5029242;28;20034;-66
2023/02/19 00:16:57;;;;;;;27.83;12.50;;;6.40;99.90;;;;;;5028975;28;20033;-69
2023/02/19 00:19:23;;;;;;;21.03;11.83;;;6.30;99.90;;;;;;5029382;28;20038;-68
2023/02/19 00:21:53;;;;;;;21.88;11.43;;;6.40;99.90;;;;;;5029450;28;20025;-68
2023/02/19 00:24:19;;;;;;;20.70;12.70;;;6.40;99.90;;;;;;5029580;28;20056;-68
2023/02/19 00:26:46;;;;;;;19.80;11.73;;;6.40;99.90;;;;;;5027621;28;20056;-69
2023/02/19 00:29:14;;;;;;;27.42;10.90;;;6.40;99.90;;;;;;5028749;28;20041;-68
2023/02/19 00:31:40;;;;;;;19.63;12.02;;;6.40;99.90;;;;;;5028822;28;20116;-69
2023/02/19 00:34:06;;;;;;;16.80;10.52;;;6.40;99.90;;;;;;5028969;28;20038;-69
2023/02/19 00:36:36;;;;;;;19.00;11.30;;;6.40;99.90;;;;;;5028808;28;20029;-67
2023/02/19 00:39:03;;;;;;;21.23;12.27;;;6.50;99.90;;;;;;5060476;28;20037;-67
2023/02/19 00:41:29;;;;;;;19.45;12.32;;;6.50;99.90;;;;;;5028785;28;20090;-68
2023/02/19 00:43:57;;;;;;;29.50;12.48;;;6.40;99.90;;;;;;5028991;28;20423;-65
2023/02/19 00:46:28;;;;;;;22.75;13.45;;;6.40;99.90;;;;;;5028454;28;20048;-67
2023/02/19 00:48:55;;;;;;;21.70;13.10;;;6.50;99.90;;;;;;5028445;28;20013;-68
2023/02/19 00:51:23;;;;;;;25.58;12.88;;;6.50;99.90;;;;;;5027845;28;20394;-64
2023/02/19 00:53:49;;;;;;;23.90;13.55;;;6.60;99.90;;;;;;5028564;28;20034;-66
2023/02/19 00:56:15;;;;;;;22.45;12.75;;;6.60;99.90;;;;;;5028460;28;20056;-65
2023/02/19 00:58:41;;;;;;;23.35;13.75;;;6.60;99.90;;;;;;5028518;28;20037;-67
2023/02/19 01:01:07;;;;;;;22.65;12.95;;;6.70;99.90;;;;;;5028543;28;20421;-68
2023/02/19 01:03:34;;;;;;;22.77;12.82;;;6.70;99.90;;;;;;5028727;28;20544;-66
2023/02/19 01:06:00;;;;;;;26.73;13.68;;;6.60;99.90;;;;;;5028497;28;20022;-66
2023/02/19 01:08:26;;;;;;;27.83;14.57;;;6.50;99.90;;;;;;5027000;28;20037;-68
2023/02/19 01:10:52;;;;;;;26.65;13.85;;;6.60;99.90;;;;;;5028922;28;20025;-63
2023/02/19 01:13:18;;;;;;;21.05;12.40;;;6.60;99.90;;;;;;5028731;28;20052;-64
2023/02/19 01:15:44;;;;;;;20.23;13.07;;;6.60;99.90;;;;;;5027172;28;20033;-69
2023/02/19 01:18:10;;;;;;;22.35;12.57;;;6.70;99.90;;;;;;5028716;28;20349;-66
2023/02/19 01:20:41;;;;;;;24.85;13.15;;;6.70;99.90;;;;;;5028321;28;20033;-67
2023/02/19 01:23:08;;;;;;;20.02;12.57;;;6.80;99.90;;;;;;5028593;28;20029;-69
2023/02/19 01:25:33;;;;;;;23.15;13.65;;;6.80;99.90;;;;;;5028057;28;20123;-66
2023/02/19 01:27:59;;;;;;;23.00;13.67;;;6.80;99.90;;;;;;5027821;28;20060;-68
2023/02/19 01:30:25;;;;;;;28.73;14.20;;;6.80;99.90;;;;;;5027815;28;20071;-67
2023/02/19 01:32:50;;;;;;;30.00;15.47;;;6.70;99.90;;;;;;5027954;28;20045;-69
2023/02/19 01:35:16;;;;;;;22.83;13.70;;;6.80;99.90;;;;;;5027859;28;20029;-69
2023/02/19 01:37:41;;;;;;;22.30;13.57;;;6.80;99.90;;;;;;5058518;28;20433;-69
2023/02/19 01:40:07;;;;;;;22.00;13.50;;;6.80;99.90;;;;;;5021629;28;20386;-68
2023/02/19 01:42:33;;;;;;;23.20;14.60;;;6.80;99.90;;;;;;5010865;28;20091;-66
2023/02/19 01:45:23;;;;;;;24.53;13.83;;;6.90;99.90;;;;;;5027655;28;20037;-67
2023/02/19 01:48:06;;;;;;;24.35;13.18;;;7.00;99.90;;;;;;5026601;28;20114;-69
2023/02/19 01:50:37;;;;;;;24.13;13.02;;;7.00;99.90;;;;;;5027872;28;20029;-69
2023/02/19 01:53:06;;;;;;;25.77;14.70;;;7.20;99.90;;;;;;5027206;28;20238;-69
2023/02/19 01:55:33;;;;;;;22.73;13.57;;;7.10;99.90;;;;;;5027200;28;20159;-68
2023/02/19 01:58:00;;;;;;;25.42;14.25;;;7.00;99.90;;;;;;5026915;28;20029;-67
2023/02/19 02:00:26;;;;;;;24.77;13.82;;;7.10;99.90;;;;;;5027096;28;20490;-65
2023/02/19 02:02:54;;;;;;;25.38;14.55;;;7.10;99.90;;;;;;5027828;28;20049;-68
2023/02/19 02:05:49;;;;;;;22.80;13.20;;;7.10;99.90;;;;;;5027435;28;20508;-69
2023/02/19 02:11:01;;;;;;;21.85;13.05;;;7.10;99.90;;;;;;5027031;28;20052;-69
2023/02/19 02:13:27;;;;;;;23.02;13.82;;;7.20;99.90;;;;;;5026018;28;20095;-67
2023/02/19 02:16:14;;;;;;;21.60;12.95;;;7.20;99.90;;;;;;5026832;28;20025;-68
2023/02/19 02:18:55;;;;;;;25.00;13.85;;;7.10;99.90;;;;;;5026313;28;20649;-69
2023/02/19 02:21:43;;;;;;;21.30;12.93;;;7.10;99.90;;;;;;5026086;28;20101;-69
2023/02/19 02:24:46;;;;;;;20.75;13.50;;;7.10;99.90;;;;;;5026946;28;20102;-66
2023/02/19 02:27:30;;;;;;;24.52;12.95;;;7.10;99.90;;;;;;5026812;28;20036;-68
2023/02/19 02:30:33;;;;;;;27.30;13.65;;;7.10;99.90;;;;;;5027130;28;20576;-67
2023/02/19 02:33:20;;;;;;;22.67;13.30;;;7.20;99.90;;;;;;5026937;28;20034;-66
2023/02/19 02:36:09;;;;;;;24.08;14.27;;;7.20;99.90;;;;;;5027004;28;20034;-69
2023/02/19 02:38:37;;;;;;;24.25;13.68;;;7.20;99.90;;;;;;5026858;28;20455;-68
2023/02/19 02:41:04;;;;;;;22.65;13.40;;;7.20;99.90;;;;;;5026743;28;20036;-67
2023/02/19 02:43:30;;;;;;;23.10;13.30;;;7.20;99.90;;;;;;5026486;28;20032;-69
2023/02/19 02:45:56;;;;;;;26.50;13.68;;;7.30;99.90;;;;;;5026694;28;20095;-68
2023/02/19 02:48:40;;;;;;;22.73;14.10;;;7.20;99.90;;;;;;5026997;28;20037;-68
2023/02/19 02:51:11;;;;;;;20.83;13.38;;;7.20;99.90;;;;;;5025880;28;20108;-68
2023/02/19 02:56:29;;;;;;;27.77;14.38;;;7.30;99.90;;;;;;5026248;28;20041;-68
2023/02/19 02:58:57;;;;;;;24.77;13.60;;;7.30;99.90;;;;;;5023386;28;20034;-67
2023/02/19 03:04:29;;;;;;;24.80;15.02;;;7.30;99.90;;;;;;5006688;28;20076;-69
2023/02/19 03:06:57;;;;;;;21.75;14.48;;;7.30;99.90;;;;;;5007056;28;20129;-68
2023/02/19 03:09:31;;;;;;;27.30;15.52;;;7.30;99.90;;;;;;5006176;28;20076;-68
2023/02/19 03:20:25;;;;;;;23.48;14.90;;;7.30;99.90;;;;;;5026642;28;20075;-68
2023/02/19 03:22:54;;;;;;;26.40;13.82;;;7.40;99.90;;;;;;5026327;28;20104;-68
2023/02/19 03:28:15;;;;;;;24.70;14.80;;;7.60;99.90;;;;;;5026403;28;20520;-66
2023/02/19 03:30:52;;;;;;;24.33;13.70;;;7.40;99.90;;;;;;5025347;28;20449;-65
2023/02/19 03:33:24;;;;;;;25.80;13.43;;;7.50;99.90;;;;;;5029744;28;20037;-68
2023/02/19 03:35:56;;;;;;;23.33;13.50;;;7.50;99.90;;;;;;5030107;28;20029;-65
2023/02/19 03:38:40;;;;;;;24.55;13.18;;;7.60;99.90;;;;;;5030217;28;20135;-66
2023/02/19 03:41:24;;;;;;;26.75;12.65;;;7.60;99.90;;;;;;5029724;28;20079;-69
2023/02/19 03:44:08;;;;;;;19.73;12.15;;;7.50;99.90;;;;;;5029732;28;20041;-67
2023/02/19 03:46:41;;;;;;;17.83;12.00;;;7.50;99.90;;;;;;5029899;28;20037;-66
2023/02/19 03:49:24;;;;;;;21.02;12.52;;;7.40;99.90;;;;;;5028612;28;20121;-68
2023/02/19 03:51:56;;;;;;;20.00;12.52;;;7.50;99.90;;;;;;5029701;28;20109;-68
2023/02/19 03:54:40;;;;;;;22.88;12.38;;;7.50;99.90;;;;;;5029826;28;20046;-68
2023/02/19 03:57:17;;;;;;;24.80;13.70;;;7.50;99.90;;;;;;5029465;28;20075;-70
2023/02/19 03:59:52;;;;;;;23.92;15.23;;;7.50;99.90;;;;;;5030034;28;20540;-65
2023/02/19 04:02:23;;;;;;;23.95;13.98;;;7.50;99.90;;;;;;5029844;28;20037;-68
2023/02/19 04:05:12;;;;;;;26.08;13.48;;;7.50;99.90;;;;;;5029518;28;20025;-68
2023/02/19 04:07:43;;;;;;;24.30;14.63;;;7.30;99.90;;;;;;5029292;28;20061;-68
2023/02/19 04:10:09;;;;;;;21.17;14.00;;;7.40;99.90;;;;;;5029694;28;20769;-68
2023/02/19 04:12:38;;;;;;;21.40;12.98;;;7.60;99.90;;;;;;5029487;28;20057;-69
2023/02/19 04:15:11;;;;;;;22.88;14.40;;;7.50;99.90;;;;;;5029286;28;20531;-65
2023/02/19 04:17:46;;;;;;;23.30;14.13;;;7.50;99.90;;;;;;5029057;28;20091;-68
2023/02/19 04:20:14;;;;;;;25.08;14.25;;;7.60;99.90;;;;;;5029161;28;20492;-69
2023/02/19 04:22:40;;;;;;;21.98;13.45;;;7.50;99.90;;;;;;5029169;28;20037;-69
2023/02/19 04:25:07;;;;;;;21.73;12.82;;;7.60;99.90;;;;;;5028995;28;20067;-69
2023/02/19 04:27:35;;;;;;;;;;;7.70;99.90;;;;;;5029431;28;20041;-66
2023/02/19 04:30:01;;;;;;;26.65;13.73;;;7.70;99.90;;;;;;5029161;28;19908;-69
2023/02/19 04:32:26;;;;;;;23.70;14.17;;;7.60;99.90;;;;;;5029170;28;20607;-65
2023/02/19 04:34:52;;;;;;;21.47;12.70;;;7.70;99.90;;;;;;5027609;28;20080;-69
2023/02/19 04:37:18;;;;;;;26.33;13.67;;;7.70;99.90;;;;;;5028787;28;20032;-67
2023/02/19 04:39:43;;;;;;;23.07;13.30;;;7.70;99.90;;;;;;5028730;28;20034;-68
2023/02/19 04:42:09;;;;;;;26.50;15.23;;;7.70;99.90;;;;;;5028248;28;20041;-69
2023/02/19 04:44:35;;;;;;;23.30;14.25;;;7.70;99.90;;;;;;5028678;28;20036;-68
2023/02/19 04:47:01;;;;;;;22.57;14.13;;;7.80;99.90;;;;;;5028323;28;20033;-68
2023/02/19 04:49:26;;;;;;;20.53;13.63;;;7.80;99.90;;;;;;5028154;28;20080;-69
2023/02/19 04:51:52;;;;;;;23.60;14.20;;;7.70;99.90;;;;;;5028358;28;20116;-69
2023/02/19 04:54:17;;;;;;;21.50;14.53;;;7.70;99.90;;;;;;5028396;28;20414;-65
2023/02/19 04:56:43;;;;;;;20.97;13.63;;;7.80;99.90;;;;;;5022722;28;20130;-66
2023/02/19 04:59:09;;;;;;;20.87;13.40;;;7.80;99.90;;;;;;5025814;28;20044;-67
2023/02/19 05:01:34;;;;;;;19.92;12.95;;;7.80;99.90;;;;;;5026425;28;20029;-70
2023/02/19 05:04:00;;;;;;;19.93;12.10;;;7.70;99.90;;;;;;5027252;28;20363;-67
2023/02/19 05:06:26;;;;;;;21.13;12.48;;;7.80;99.90;;;;;;5027328;28;20284;-70
2023/02/19 05:08:52;;;;;;;18.87;12.03;;;7.70;99.90;;;;;;5025250;28;20044;-70
2023/02/19 05:11:17;;;;;;;27.13;14.32;;;7.70;99.90;;;;;;5027137;28;20299;-69
2023/02/19 05:13:43;;;;;;;24.57;13.90;;;7.80;99.90;;;;;;5026575;28;20128;-70
2023/02/19 05:16:12;;;;;;;27.00;14.90;;;7.80;99.90;;;;;;5026886;28;20053;-69
2023/02/19 05:18:39;;;;;;;20.52;12.80;;;7.80;99.90;;;;;;5027215;28;20510;-68
2023/02/19 05:21:04;;;;;;;24.80;14.30;;;7.80;99.90;;;;;;5026300;28;20086;-66
2023/02/19 05:23:30;;;;;;;23.50;13.90;;;7.90;99.90;;;;;;5027658;28;20053;-67
2023/02/19 05:25:56;;;;;;;27.93;14.83;;;7.90;99.90;;;;;;5026730;28;20036;-68
2023/02/19 05:28:27;;;;;;;20.67;12.50;;;7.80;99.90;;;;;;5026239;28;20292;-67
2023/02/19 05:30:53;;;;;;;21.92;12.35;;;7.70;99.90;;;;;;5027291;28;20036;-67
2023/02/19 05:33:21;;;;;;;19.27;12.85;;;7.70;99.90;;;;;;5027697;28;20044;-68
2023/02/19 05:35:49;;;;;;;21.77;13.20;;;7.80;99.90;;;;;;5026534;28;20036;-65
2023/02/19 05:38:16;;;;;;;20.42;12.80;;;7.80;99.90;;;;;;5025634;28;20508;-68
2023/02/19 05:40:42;;;;;;;22.65;13.10;;;7.80;99.90;;;;;;5026355;28;20033;-68
2023/02/19 05:43:08;;;;;;;17.63;12.55;;;7.80;99.90;;;;;;5025333;28;20481;-69
2023/02/19 05:45:34;;;;;;;23.53;12.93;;;7.60;99.90;;;;;;5026588;28;20041;-64
2023/02/19 05:48:00;;;;;;;19.92;12.30;;;7.70;99.90;;;;;;5026764;28;20575;-67
2023/02/19 05:50:26;;;;;;;27.20;13.38;;;7.80;99.90;;;;;;5026098;28;20044;-64
2023/02/19 05:52:52;;;;;;;18.58;12.60;;;7.60;99.90;;;;;;5025852;28;20045;-69
2023/02/19 05:55:18;;;;;;;19.73;12.53;;;7.60;99.90;;;;;;5026411;28;20500;-68
2023/02/19 05:57:46;;;;;;;23.58;13.25;;;7.70;99.90;;;;;;5024770;28;20046;-64
2023/02/19 06:00:15;;;;;;;25.38;13.77;;;7.70;99.90;;;;;;5026328;28;20117;-68
2023/02/19 06:02:41;;;;;;;20.58;12.95;;;7.60;99.90;;;;;;5026500;28;20065;-65
2023/02/19 06:05:07;;;;;;;26.70;14.20;;;7.60;99.90;;;;;;5025958;28;20048;-68
2023/02/19 06:07:34;;;;;;;27.17;12.98;;;7.50;99.90;;;;;;5025466;28;20069;-66
2023/02/19 06:10:00;;;;;;;;;;;7.50;99.90;;;;;;5026160;28;20029;-69
2023/02/19 06:12:26;;;;;;;25.63;13.80;;;7.50;99.90;;;;;;5024438;28;19967;-65
2023/02/19 06:14:51;;;;;;;29.20;14.70;;;7.40;99.90;;;;;;5025552;28;20564;-69
2023/02/19 06:17:17;;;;;;;24.00;14.83;;;7.40;99.90;;;;;;5025483;28;20025;-68
2023/02/19 06:19:43;;;;;;;24.17;14.73;;;7.40;99.90;;;;;;5025332;28;20037;-69
2023/02/19 06:22:09;;;;;;;23.30;14.53;;;7.30;99.90;;;;;;5024620;28;20409;-71
2023/02/19 06:24:36;;;;;;;23.57;13.83;;;7.40;99.90;;;;;;5026469;28;20021;-70
2023/02/19 06:27:05;;;;;;;24.20;14.45;;;7.40;99.90;;;;;;5025775;28;20033;-64
2023/02/19 06:29:31;;;;;;;22.88;13.82;;;7.30;99.90;;;;;;5025820;28;20116;-66
2023/02/19 06:31:57;;;;;;;29.08;16.50;;;7.20;99.90;;;;;;5025921;28;20056;-66
2023/02/19 06:34:23;;;;;;;25.95;14.60;;;7.20;99.90;;;;;;5025623;28;20041;-70
2023/02/19 06:36:49;;;;;;;24.10;14.90;;;7.20;99.90;;;;;;5025339;28;20048;-66
2023/02/19 06:39:14;;;;;;;27.77;17.27;;;7.10;99.90;;;;;;5026090;28;20046;-69
2023/02/19 06:41:40;;;;;;;22.77;15.63;;;7.00;99.90;;;;;;5025953;28;20036;-69
2023/02/19 06:44:06;;;;;;;26.20;15.53;;;7.00;99.90;;;;;;5025548;28;20041;-68
2023/02/19 06:46:31;;;;;;;23.77;15.27;;;7.10;99.90;;;;;;5025612;28;20096;-64
2023/02/19 06:48:57;;;;;;;23.37;16.13;;;7.20;99.90;;;;;;5025417;28;20413;-64
2023/02/19 06:51:25;;;;;;;29.70;16.27;;;7.20;99.90;;;;;;5023662;28;20041;-66
2023/02/19 06:53:51;;;;;;;28.85;16.92;;;7.30;99.90;;;;;;5021630;28;20175;-63
2023/02/19 06:56:33;;;;;;;25.33;16.58;;;7.40;99.90;;;;;;5022287;28;20088;-67
2023/02/19 06:59:01;;;;;;;23.27;15.85;;;7.60;99.90;;;;;;5022394;28;20481;-68
2023/02/19 07:01:28;;;;;;;22.73;14.65;;;7.70;99.90;;;;;;5025427;28;20022;-68
2023/02/19 07:03:54;;;;;;;21.52;13.95;;;7.80;99.90;;;;;;5023604;28;20075;-64
2023/02/19 07:06:21;;;;;;;19.93;13.37;;;7.80;99.90;;;;;;5027125;28;20017;-67
2023/02/19 07:08:47;;;;;;;24.95;16.05;;;7.80;99.90;;;;;;5024935;28;20057;-68
2023/02/19 07:11:13;;;;;;;23.30;14.48;;;7.90;99.90;;;;;;5026544;28;20030;-63
2023/02/19 07:13:39;;;;;;;23.30;14.23;;;8.00;99.90;;;;;;5028840;28;20037;-70
2023/02/19 07:16:07;;;;;;;26.23;15.43;;;7.90;99.90;;;;;;5027725;28;20497;-65
2023/02/19 07:18:33;;;;;;;21.23;12.40;;;7.90;99.90;;;;;;5025793;28;20041;-66
2023/02/19 07:21:17;;;;;;;22.30;14.65;;;8.00;99.90;;;;;;5027260;28;20056;-66
2023/02/19 07:23:44;;;;;;;23.20;14.30;;;7.90;99.90;;;;;;5029679;28;20052;-67
2023/02/19 07:26:14;;;;;;;;;;;8.00;99.90;;;;;;5026753;28;20033;-68
2023/02/19 07:28:41;;;;;;;21.35;14.25;;;8.00;99.90;;;;;;5027973;28;20447;-65
2023/02/19 07:31:06;;;;;;;24.48;13.68;;;8.00;99.90;;;;;;5028400;28;20133;-68
2023/02/19 07:33:32;;;;;;;26.47;15.23;;;8.00;99.90;;;;;;5028679;28;20124;-68
2023/02/19 07:35:58;;;;;;;23.37;14.47;;;8.10;99.90;;;;;;5028755;28;20029;-66
2023/02/19 07:38:25;;;;;;;19.93;13.73;;;8.10;99.90;;;;;;5028636;28;20296;-64
2023/02/19 07:40:54;;;;;;;23.25;13.80;;;8.20;99.90;;;;;;5028367;28;20021;-63
2023/02/19 07:43:20;;;;;;;26.20;14.38;;;8.20;99.90;;;;;;5028555;28;20030;-70
2023/02/19 07:45:45;;;;;;;24.38;15.85;;;8.10;99.90;;;;;;5028470;28;20104;-65
2023/02/19 07:48:11;;;;;;;27.02;15.90;;;8.20;99.90;;;;;;5026953;28;20136;-68
2023/02/19 07:50:37;;;;;;;22.00;14.73;;;8.20;99.90;;;;;;5023783;28;20032;-70
2023/02/19 07:53:02;;;;;;;20.83;13.97;;;8.20;99.90;;;;;;5023675;28;20832;-69
2023/02/19 07:55:29;;;;;;;22.93;14.60;;;8.20;99.90;;;;;;5028869;28;20022;-70
2023/02/19 07:57:57;;;;;;;24.23;15.40;;;8.30;99.90;;;;;;5026932;28;20327;-69
2023/02/19 08:00:24;;;;;;;23.17;15.20;;;8.30;99.90;;;;;;5025662;28;20034;-67
2023/02/19 08:03:00;;;;;;;23.98;15.10;;;8.50;99.90;;;;;;5028195;28;20029;-68
2023/02/19 08:05:30;;;;;;;24.38;15.52;;;8.50;99.90;;;;;;5028153;28;20509;-68
2023/02/19 08:07:57;;;;;;;26.63;16.17;;;8.60;99.90;;;;;;5026015;28;20025;-66
2023/02/19 08:13:26;;;;;;;25.45;16.17;;;8.50;99.90;;;;;;5026118;28;20144;-69
2023/02/19 08:16:01;;;;;;;22.17;15.18;;;8.50;99.90;;;;;;5028182;28;20057;-66
2023/02/19 08:18:29;;;;;;;29.20;15.45;;;8.50;99.90;;;;;;5026949;28;20508;-69
2023/02/19 08:20:56;;;;;;;22.35;14.48;;;8.60;99.90;;;;;;5027001;28;20029;-69
2023/02/19 08:23:21;;;;;;;23.65;15.75;;;8.60;99.90;;;;;;5028873;28;20030;-71
2023/02/19 08:25:49;;;;;;;23.40;15.30;;;8.80;99.90;;;;;;5028408;28;20045;-70
2023/02/19 08:28:15;;;;;;;29.42;17.05;;;8.80;99.90;;;;;;5028356;28;20108;-71
2023/02/19 08:30:45;;;;;;;25.63;17.48;;;8.90;99.90;;;;;;5027975;28;20110;-70
2023/02/19 08:33:14;;;;;;;29.77;18.40;;;8.90;99.90;;;;;;5020094;28;20042;-65
2023/02/19 08:35:40;;;;;;;29.23;17.95;;;8.90;99.90;;;;;;5026164;28;20409;-70
2023/02/19 08:38:06;;;;;;;;;;;8.80;99.90;;;;;;5028117;28;20032;-69
2023/02/19 08:40:32;;;;;;;28.38;18.48;;;8.90;99.90;;;;;;5026695;28;19913;-70
2023/02/19 08:43:09;;;;;;;31.98;18.60;;;9.00;99.90;;;;;;5027587;28;20091;-69
2023/02/19 08:45:39;;;;;;;26.95;17.33;;;9.00;99.90;;;;;;5027954;28;20116;-67
2023/02/19 08:48:06;;;;;;;30.80;18.38;;;9.00;99.90;;;;;;5026777;28;20028;-68
2023/02/19 08:50:31;;;;;;;26.50;17.25;;;9.00;99.90;;;;;;5028199;28;20934;-69
2023/02/19 08:53:01;;;;;;;29.25;18.27;;;9.00;99.90;;;;;;5026285;28;20056;-70
2023/02/19 08:55:27;;;;;;;26.90;17.88;;;9.00;99.90;;;;;;5025681;28;20096;-68
2023/02/19 08:57:52;;;;;;;26.88;18.60;;;9.00;99.90;;;;;;5027343;28;20131;-72
2023/02/19 09:00:18;;;;;;;31.37;19.07;;;9.10;99.90;;;;;;5027324;28;20033;-68
2023/02/19 09:02:44;;;;;;;29.67;18.97;;;9.10;99.90;;;;;;5024700;28;20033;-72
2023/02/19 09:05:13;;;;;;;28.63;18.97;;;9.10;99.90;;;;;;5026629;28;20107;-72
2023/02/19 09:07:39;;;;;;;25.60;17.60;;;9.20;99.90;;;;;;5026897;28;20030;-73
2023/02/19 09:10:05;;;;;;;26.98;16.98;;;9.20;99.90;;;;;;5027400;28;20052;-72
2023/02/19 09:12:32;;;;;;;25.42;16.70;;;9.30;99.90;;;;;;5027411;28;20033;-69
2023/02/19 09:14:58;;;;;;;23.83;16.50;;;9.40;99.90;;;;;;5026623;28;20045;-72
2023/02/19 09:17:24;;;;;;;24.63;15.75;;;9.60;99.90;;;;;;5026579;28;20520;-72
2023/02/19 09:19:49;;;;;;;25.03;17.60;;;9.60;99.90;;;;;;5026432;28;20041;-72
2023/02/19 09:22:15;;;;;;;23.77;17.17;;;9.70;99.90;;;;;;5024751;28;20382;-72
2023/02/19 09:24:42;;;;;;;25.37;17.00;;;9.90;99.90;;;;;;5026415;28;20037;-71
2023/02/19 09:27:09;;;;;;;23.83;16.38;;;10.10;99.90;;;;;;5026277;28;20129;-73
2023/02/19 09:29:35;;;;;;;24.05;16.63;;;10.30;99.90;;;;;;5019413;28;20468;-70
2023/02/19 09:32:00;;;;;;;29.00;17.67;;;10.50;99.90;;;;;;5025634;28;20068;-70
2023/02/19 09:34:27;;;;;;;29.77;17.27;;;10.60;99.90;;;;;;5026770;28;20051;-69
2023/02/19 09:36:54;;;;;;;27.23;17.45;;;10.90;99.90;;;;;;5026491;28;20037;-70
2023/02/19 09:39:20;;;;;;;26.50;18.20;;;11.00;99.90;;;;;;5026275;28;20033;-71
2023/02/19 09:42:23;;;;;;;30.42;18.67;;;11.30;99.90;;;;;;5026416;28;20068;-67
2023/02/19 09:44:52;;;;;;;28.45;16.70;;;12.20;99.90;;;;;;5024725;28;20520;-71
2023/02/19 09:47:23;;;;;;;27.05;17.40;;;12.50;99.90;;;;;;5021192;28;20028;-67
2023/02/19 09:49:57;;;;;;;24.27;15.80;;;13.50;99.90;;;;;;5025880;28;20371;-69
2023/02/19 09:52:42;;;;;;;21.77;14.77;;;14.00;99.90;;;;;;5025007;28;20029;-66
2023/02/19 09:55:18;;;;;;;21.27;15.13;;;13.80;99.90;;;;;;5025153;28;20033;-68
2023/02/19 09:57:45;;;;;;;18.60;14.13;;;13.60;99.90;;;;;;5025512;28;20037;-71
2023/02/19 10:00:11;;;;;;;20.88;13.63;;;13.70;99.90;;;;;;5026462;28;20112;-66
2023/02/19 10:02:37;;;;;;;19.23;13.25;;;13.50;99.90;;;;;;5027095;28;20108;-67
2023/02/19 10:05:12;;;;;;;19.90;12.95;;;13.50;99.90;;;;;;5023801;28;20061;-68
2023/02/19 10:07:42;;;;;;;19.83;13.45;;;13.40;99.90;;;;;;5024052;28;20087;-68
2023/02/19 10:10:13;;;;;;;18.27;12.15;;;13.30;99.90;;;;;;5024760;28;20021;-69
2023/02/19 10:12:46;;;;;;;20.33;13.30;;;13.50;99.90;;;;;;5023442;28;20064;-65
2023/02/19 10:15:18;;;;;;;16.58;11.90;;;14.20;99.90;;;;;;5021790;28;20041;-68
2023/02/19 10:17:43;;;;;;;17.15;12.02;;;13.90;99.90;;;;;;5025861;28;20036;-67
2023/02/19 10:20:18;;;;;;;18.63;12.70;;;13.70;99.90;;;;;;5023522;28;20038;-67
2023/02/19 10:22:44;;;;;;;20.27;11.93;;;13.50;99.90;;;;;;5024096;28;20045;-70
2023/02/19 10:25:15;;;;;;;16.45;10.65;;;13.40;99.90;;;;;;5024231;28;20029;-67
2023/02/19 10:27:42;;;;;;;15.40;10.20;;;13.60;99.90;;;;;;5024736;28;20045;-68
2023/02/19 10:30:19;;;;;;;;;;;14.20;99.90;;;;;;5024393;28;20439;-64
2023/02/19 10:33:08;;;;;;;10.77;8.43;;;14.30;99.90;;;;;;5023563;28;19952;-68
2023/02/19 10:35:50;;;;;;;17.42;8.80;;;14.20;99.90;;;;;;5017681;28;20033;-65
2023/02/19 10:38:17;;;;;;;13.30;9.50;;;14.20;99.90;;;;;;5024471;28;20029;-70
2023/02/19 10:40:45;;;;;;;11.93;8.27;;;14.10;99.90;;;;;;5023422;28;20069;-68
2023/02/19 10:43:21;;;;;;;11.52;7.20;;;14.00;99.90;;;;;;5023998;28;20187;-70
2023/02/19 10:45:51;;;;;;;10.68;7.30;;;13.80;99.90;;;;;;5021250;28;20776;-69
2023/02/19 10:48:29;;;;;;;9.48;6.55;;;13.70;99.90;;;;;;5023248;28;20095;-65
2023/02/19 10:51:03;;;;;;;9.95;6.75;;;13.70;99.90;;;;;;5024562;28;20071;-67
2023/02/19 10:53:47;;;;;;;8.82;5.85;;;13.60;99.90;;;;;;5025741;28;20049;-69
2023/02/19 10:56:23;;;;;;;7.15;5.28;;;13.50;99.90;;;;;;5025123;28;20502;-68
2023/02/19 10:58:49;;;;;;;8.37;5.57;;;13.30;99.90;;;;;;5025058;28;20030;-68
2023/02/19 11:01:19;;;;;;;7.15;5.30;;;13.20;99.90;;;;;;5024149;28;20342;-69
2023/02/19 11:03:46;;;;;;;6.53;5.50;;;13.10;99.90;;;;;;5024004;28;20034;-70
2023/02/19 11:06:14;;;;;;;8.80;5.75;;;13.10;99.90;;;;;;5025313;28;20476;-70
2023/02/19 11:08:51;;;;;;;9.00;6.18;;;13.10;99.90;;;;;;5025434;28;20092;-70
2023/02/19 11:11:26;;;;;;;;;;;13.10;99.90;;;;;;5025420;28;20501;-67
2023/02/19 11:13:54;;;;;;;11.95;7.13;;;13.00;99.90;;;;;;5025065;28;19921;-70
2023/02/19 11:16:19;;;;;;;13.07;6.22;;;12.80;99.90;;;;;;5025245;28;20444;-70
2023/02/19 11:18:55;;;;;;;10.00;7.07;;;12.80;99.90;;;;;;5025064;28;20033;-65
2023/02/19 11:21:31;;;;;;;11.30;7.63;;;12.80;99.90;;;;;;5022231;28;20033;-70
2023/02/19 11:24:03;;;;;;;15.63;8.82;;;12.80;99.90;;;;;;5008947;28;20516;-70
2023/02/19 11:26:37;;;;;;;9.52;6.85;;;12.80;99.90;;;;;;5024874;28;20430;-70
2023/02/19 11:29:16;;;;;;;10.90;6.57;;;12.70;99.90;;;;;;5025539;28;20029;-68
2023/02/19 11:31:42;;;;;;;10.15;6.40;;;12.70;99.90;;;;;;5025420;28;20036;-70
2023/02/19 11:34:13;;;;;;;7.40;5.57;;;12.70;99.90;;;;;;5025254;28;20056;-70
2023/02/19 11:36:40;;;;;;;5.53;4.72;;;12.70;99.90;;;;;;5025651;28;20033;-71
2023/02/19 11:39:15;;;;;;;7.88;5.35;;;12.70;99.90;;;;;;5025027;28;20823;-69
2023/02/19 11:41:59;;;;;;;6.95;4.85;;;12.60;99.90;;;;;;5025097;28;20505;-69
2023/02/19 11:44:41;;;;;;;7.18;5.18;;;12.60;99.90;;;;;;5025735;28;20033;-69
2023/02/19 11:47:40;;;;;;;7.18;4.90;;;12.60;99.90;;;;;;5025105;28;20038;-70
2023/02/19 11:50:26;;;;;;;8.88;4.70;;;12.60;99.90;;;;;;5024924;28;20055;-71
2023/02/19 11:53:02;;;;;;;9.45;5.60;;;12.60;99.90;;;;;;5026866;28;20109;-67
2023/02/19 11:55:55;;;;;;;11.05;6.00;;;12.60;99.90;;;;;;5028521;28;20030;-70
2023/02/19 11:58:27;;;;;;;13.45;7.15;;;12.60;99.90;;;;;;5027196;28;20569;-65
2023/02/19 12:01:13;;;;;;;8.90;6.32;;;12.50;99.90;;;;;;5028093;28;20037;-67
2023/02/19 12:03:39;;;;;;;6.13;4.60;;;12.60;99.90;;;;;;5028204;28;20095;-66
2023/02/19 12:06:19;;;;;;;10.07;3.70;;;12.60;99.90;;;;;;5027125;28;20501;-70
2023/02/19 12:09:27;;;;;;;5.68;3.70;;;12.70;99.90;;;;;;5026638;28;20513;-65
2023/02/19 12:12:13;;;;;;;6.05;2.70;;;12.80;99.90;;;;;;5020126;28;20049;-68
2023/02/19 12:14:54;;;;;;;4.43;2.08;;;12.90;99.90;;;;;;5028197;28;20058;-71
2023/02/19 12:17:53;;;;;;;3.20;2.30;;;12.90;99.90;;;;;;5028301;28;20026;-69
2023/02/19 12:20:30;;;;;;;4.68;2.58;;;13.00;99.90;;;;;;5020644;28;20041;-68
2023/02/19 12:23:17;;;;;;;4.18;2.80;;;12.90;99.90;;;;;;5019808;28;20552;-70
2023/02/19 12:26:08;;;;;;;4.53;2.55;;;12.90;99.90;;;;;;5020689;28;20048;-64
2023/02/19 12:28:52;;;;;;;3.58;2.97;;;12.90;99.90;;;;;;5022552;28;20033;-64
2023/02/19 12:31:39;;;;;;;2.70;1.80;;;12.90;99.90;;;;;;5027920;28;20807;-68
2023/02/19 12:34:15;;;;;;;2.88;2.03;;;12.90;99.90;;;;;;5028162;28;20045;-65
2023/02/19 12:36:56;;;;;;;5.68;2.95;;;13.00;99.90;;;;;;5028160;28;20087;-69
2023/02/19 12:40:07;;;;;;;3.00;2.17;;;13.00;99.90;;;;;;5028566;28;20037;-68
2023/02/19 12:43:02;;;;;;;3.45;2.40;;;12.90;99.90;;;;;;5003746;28;20045;-63
2023/02/19 12:46:00;;;;;;;3.75;2.10;;;12.80;99.90;;;;;;5022239;28;20045;-65
2023/02/19 12:48:38;;;;;;;2.83;2.22;;;12.80;99.90;;;;;;5027369;28;20042;-69
2023/02/19 12:51:08;;;;;;;3.05;2.40;;;12.80;99.90;;;;;;5026392;28;20041;-70
2023/02/19 12:53:47;;;;;;;4.47;2.55;;;12.80;99.90;;;;;;5028837;28;20072;-66
2023/02/19 12:56:25;;;;;;;3.80;2.38;;;12.80;99.90;;;;;;5028081;28;20018;-65
2023/02/19 12:59:09;;;;;;;2.55;2.03;;;12.70;99.90;;;;;;5023756;28;20132;-68
2023/02/19 13:01:42;;;;;;;4.70;2.85;;;12.70;99.90;;;;;;5024089;28;20033;-67
2023/02/19 13:04:28;;;;;;;5.15;2.58;;;12.70;99.90;;;;;;5026971;28;20132;-67
2023/02/19 13:07:08;;;;;;;2.85;2.58;;;12.70;99.90;;;;;;5018810;28;20033;-67
2023/02/19 13:09:38;;;;;;;7.60;3.25;;;12.70;99.90;;;;;;5019361;28;20291;-68
2023/02/19 13:12:13;;;;;;;5.57;3.20;;;12.70;99.90;;;;;;5027379;28;20405;-69
2023/02/19 13:14:53;;;;;;;4.95;2.65;;;12.70;99.90;;;;;;5027006;28;20045;-66
2023/02/19 13:17:34;;;;;;;5.07;3.10;;;12.70;99.90;;;;;;5026911;28;20136;-68
2023/02/19 13:20:14;;;;;;;2.95;2.40;;;12.70;99.90;;;;;;5025943;28;20551;-68
2023/02/19 13:26:21;;;;;;;3.05;2.15;;;12.70;99.90;;;;;;5027312;28;20432;-69
2023/02/19 13:29:15;;;;;;;5.25;2.60;;;12.70;99.90;;;;;;5026038;28;20030;-70